Check out our new BloomSky Weather System.

Active alerts


No alerts


Thunder radar  blitzortung!


Rain radar more information rain snow radar


Visit our other weather sites:

Template documentation
and downloads

And another site



Weather Underground History page Text

Daily Summary for February 6, 2018 Units:  Both    English   Metric
« Previous Day
Next Day »
Daily Weekly Monthly Yearly Custom
  High: Low: Average:
Temperature: TemperatureF °F /  -17.8 °C 52.9 °F /  11.6 °C 64.3 °F /  17.9 °C
Dew Point: DewpointF °F /  -17.8 °C 51.8 °F /  11 °C 63 °F /  17.2 °C
Humidity: Humidity % 85 % 96 %
Wind Speed: WindSpeedMPH mph /  0 km/h - 2.2 mph /  3.5 km/h
Wind Gust: WindSpeedGustMPH mph /  0 km/h - -
Wind:- - SSE
Pressure: PressureIn in /  0 hPa 29.94 in /  1013.8 hPa -
Precipitation: 0.05 in /  1.27 mm    
Historical Graphs
 
 
Tabular Data for February 6, 2018
Time Temperature Dew Point Pressure Wind Wind Speed Wind Gust Humidity Rainfall Rate (Hourly)
TemperatureF °F /  -17.8 °C DewpointF °F /  -17.8 °C PressureIn in /  0 hPa Calm     Humidity % HourlyPrecipIn in /  0 mm
00:04 57.0 °F /  13.9 °C 56.1 °F /  13.4 °C 30.07 in /  1018.2 hPa ESE 1.0 mph /  1.6 km/h 4.0 mph /  6.4 km/h 97 % 0.00 in /  0 mm
00:09 57.0 °F /  13.9 °C 56.1 °F /  13.4 °C 30.06 in /  1017.8 hPa SE 2.0 mph /  3.2 km/h 4.0 mph /  6.4 km/h 97 % 0.00 in /  0 mm
00:14 57.0 °F /  13.9 °C 56.5 °F /  13.6 °C 30.06 in /  1017.8 hPa SE 1.0 mph /  1.6 km/h 4.0 mph /  6.4 km/h 98 % 0.00 in /  0 mm
00:19 57.0 °F /  13.9 °C 56.5 °F /  13.6 °C 30.06 in /  1017.8 hPa ESE 2.0 mph /  3.2 km/h 4.0 mph /  6.4 km/h 98 % 0.00 in /  0 mm
00:24 57.0 °F /  13.9 °C 56.5 °F /  13.6 °C 30.06 in /  1017.8 hPa SE 1.0 mph /  1.6 km/h 4.0 mph /  6.4 km/h 98 % 0.00 in /  0 mm
00:29 57.0 °F /  13.9 °C 56.5 °F /  13.6 °C 30.06 in /  1017.8 hPa ESE 1.0 mph /  1.6 km/h 4.0 mph /  6.4 km/h 98 % 0.00 in /  0 mm
00:34 57.0 °F /  13.9 °C 56.5 °F /  13.6 °C 30.06 in /  1017.8 hPa Calm   4.0 mph /  6.4 km/h 98 % 0.00 in /  0 mm
00:39 57.0 °F /  13.9 °C 56.5 °F /  13.6 °C 30.06 in /  1017.8 hPa Calm   2.0 mph /  3.2 km/h 98 % 0.00 in /  0 mm
00:44 57.2 °F /  14 °C 56.7 °F /  13.7 °C 30.06 in /  1017.8 hPa East 1.0 mph /  1.6 km/h 2.0 mph /  3.2 km/h 98 % 0.00 in /  0 mm
00:49 57.2 °F /  14 °C 56.7 °F /  13.7 °C 30.06 in /  1017.8 hPa Calm   2.0 mph /  3.2 km/h 98 % 0.00 in /  0 mm
00:54 57.2 °F /  14 °C 56.7 °F /  13.7 °C 30.06 in /  1017.8 hPa Calm   2.0 mph /  3.2 km/h 98 % 0.00 in /  0 mm
00:59 57.2 °F /  14 °C 56.7 °F /  13.7 °C 30.05 in /  1017.5 hPa Calm   2.0 mph /  3.2 km/h 98 % 0.00 in /  0 mm
01:04 57.4 °F /  14.1 °C 56.8 °F /  13.8 °C 30.05 in /  1017.5 hPa East 1.0 mph /  1.6 km/h 1.0 mph /  1.6 km/h 98 % 0.00 in /  0 mm
01:09 57.4 °F /  14.1 °C 56.8 °F /  13.8 °C 30.05 in /  1017.5 hPa Calm   2.0 mph /  3.2 km/h 98 % 0.00 in /  0 mm
01:14 57.4 °F /  14.1 °C 56.8 °F /  13.8 °C 30.05 in /  1017.5 hPa Calm   2.0 mph /  3.2 km/h 98 % 0.00 in /  0 mm
01:19 57.4 °F /  14.1 °C 56.8 °F /  13.8 °C 30.05 in /  1017.5 hPa Calm   2.0 mph /  3.2 km/h 98 % 0.00 in /  0 mm
01:24 57.4 °F /  14.1 °C 56.8 °F /  13.8 °C 30.05 in /  1017.5 hPa East 2.0 mph /  3.2 km/h 2.0 mph /  3.2 km/h 98 % 0.00 in /  0 mm
01:29 57.4 °F /  14.1 °C 56.8 °F /  13.8 °C 30.05 in /  1017.5 hPa Calm   2.0 mph /  3.2 km/h 98 % 0.00 in /  0 mm
01:34 57.4 °F /  14.1 °C 56.8 °F /  13.8 °C 30.05 in /  1017.5 hPa Calm   2.0 mph /  3.2 km/h 98 % 0.00 in /  0 mm
01:39 57.4 °F /  14.1 °C 56.8 °F /  13.8 °C 30.05 in /  1017.5 hPa SE 2.0 mph /  3.2 km/h 2.0 mph /  3.2 km/h 98 % 0.00 in /  0 mm
01:44 57.4 °F /  14.1 °C 56.8 °F /  13.8 °C 30.05 in /  1017.5 hPa SE 1.0 mph /  1.6 km/h 2.0 mph /  3.2 km/h 98 % 0.00 in /  0 mm
01:49 57.6 °F /  14.2 °C 57.2 °F /  14 °C 30.05 in /  1017.5 hPa Calm   2.0 mph /  3.2 km/h 99 % 0.00 in /  0 mm
01:54 57.6 °F /  14.2 °C 57.2 °F /  14 °C 30.05 in /  1017.5 hPa SE 1.0 mph /  1.6 km/h 2.0 mph /  3.2 km/h 99 % 0.00 in /  0 mm
01:59 57.6 °F /  14.2 °C 57.2 °F /  14 °C 30.05 in /  1017.5 hPa Calm   2.0 mph /  3.2 km/h 99 % 0.00 in /  0 mm
02:04 57.6 °F /  14.2 °C 57.2 °F /  14 °C 30.05 in /  1017.5 hPa Calm   2.0 mph /  3.2 km/h 99 % 0.00 in /  0 mm
02:09 57.6 °F /  14.2 °C 57.2 °F /  14 °C 30.05 in /  1017.5 hPa Calm   1.0 mph /  1.6 km/h 99 % 0.00 in /  0 mm
02:14 57.6 °F /  14.2 °C 57.2 °F /  14 °C 30.05 in /  1017.5 hPa Calm   1.0 mph /  1.6 km/h 99 % 0.00 in /  0 mm
02:19 57.7 °F /  14.3 °C 57.4 °F /  14.1 °C 30.04 in /  1017.2 hPa Calm   1.0 mph /  1.6 km/h 99 % 0.00 in /  0 mm
02:24 57.7 °F /  14.3 °C 57.4 °F /  14.1 °C 30.04 in /  1017.2 hPa Calm   1.0 mph /  1.6 km/h 99 % 0.00 in /  0 mm
02:29 57.7 °F /  14.3 °C 57.4 °F /  14.1 °C 30.04 in /  1017.2 hPa Calm   1.0 mph /  1.6 km/h 99 % 0.00 in /  0 mm
02:34 57.7 °F /  14.3 °C 57.4 °F /  14.1 °C 30.04 in /  1017.2 hPa Calm   1.0 mph /  1.6 km/h 99 % 0.00 in /  0 mm
02:39 57.7 °F /  14.3 °C 57.4 °F /  14.1 °C 30.05 in /  1017.5 hPa Calm   1.0 mph /  1.6 km/h 99 % 0.00 in /  0 mm
02:44 57.7 °F /  14.3 °C 57.4 °F /  14.1 °C 30.04 in /  1017.2 hPa Calm   1.0 mph /  1.6 km/h 99 % 0.00 in /  0 mm
02:49 57.7 °F /  14.3 °C 57.4 °F /  14.1 °C 30.04 in /  1017.2 hPa Calm   1.0 mph /  1.6 km/h 99 % 0.00 in /  0 mm
02:54 57.7 °F /  14.3 °C 57.4 °F /  14.1 °C 30.04 in /  1017.2 hPa Calm   1.0 mph /  1.6 km/h 99 % 0.00 in /  0 mm
02:59 57.7 °F /  14.3 °C 57.4 °F /  14.1 °C 30.04 in /  1017.2 hPa Calm   1.0 mph /  1.6 km/h 99 % 0.00 in /  0 mm
03:04 57.9 °F /  14.4 °C 57.6 °F /  14.2 °C 30.04 in /  1017.2 hPa Calm   1.0 mph /  1.6 km/h 99 % 0.00 in /  0 mm
03:09 57.9 °F /  14.4 °C 57.6 °F /  14.2 °C 30.04 in /  1017.2 hPa Calm   2.0 mph /  3.2 km/h 99 % 0.00 in /  0 mm
03:14 57.9 °F /  14.4 °C 57.6 °F /  14.2 °C 30.04 in /  1017.2 hPa North 1.0 mph /  1.6 km/h 2.0 mph /  3.2 km/h 99 % 0.00 in /  0 mm
03:19 57.9 °F /  14.4 °C 57.6 °F /  14.2 °C 30.04 in /  1017.2 hPa Calm   2.0 mph /  3.2 km/h 99 % 0.00 in /  0 mm
03:24 57.9 °F /  14.4 °C 57.6 °F /  14.2 °C 30.04 in /  1017.2 hPa Calm   2.0 mph /  3.2 km/h 99 % 0.00 in /  0 mm
03:29 57.9 °F /  14.4 °C 57.6 °F /  14.2 °C 30.04 in /  1017.2 hPa Calm   2.0 mph /  3.2 km/h 99 % 0.00 in /  0 mm
03:34 57.9 °F /  14.4 °C 57.6 °F /  14.2 °C 30.04 in /  1017.2 hPa Calm   2.0 mph /  3.2 km/h 99 % 0.00 in /  0 mm
03:39 57.9 °F /  14.4 °C 57.6 °F /  14.2 °C 30.04 in /  1017.2 hPa Calm   2.0 mph /  3.2 km/h 99 % 0.00 in /  0 mm
03:44 57.9 °F /  14.4 °C 57.6 °F /  14.2 °C 30.04 in /  1017.2 hPa NE 1.0 mph /  1.6 km/h 2.0 mph /  3.2 km/h 99 % 0.00 in /  0 mm
03:49 57.7 °F /  14.3 °C 57.4 °F /  14.1 °C 30.04 in /  1017.2 hPa Calm   2.0 mph /  3.2 km/h 99 % 0.00 in /  0 mm
03:54 57.7 °F /  14.3 °C 57.4 °F /  14.1 °C 30.04 in /  1017.2 hPa Calm   2.0 mph /  3.2 km/h 99 % 0.00 in /  0 mm
03:59 57.7 °F /  14.3 °C 57.4 °F /  14.1 °C 30.04 in /  1017.2 hPa Calm   2.0 mph /  3.2 km/h 99 % 0.00 in /  0 mm
04:04 57.7 °F /  14.3 °C 57.4 °F /  14.1 °C 30.04 in /  1017.2 hPa Calm   2.0 mph /  3.2 km/h 99 % 0.00 in /  0 mm
04:09 57.9 °F /  14.4 °C 57.6 °F /  14.2 °C 30.04 in /  1017.2 hPa Calm   2.0 mph /  3.2 km/h 99 % 0.00 in /  0 mm
04:14 57.9 °F /  14.4 °C 57.6 °F /  14.2 °C 30.04 in /  1017.2 hPa Calm   2.0 mph /  3.2 km/h 99 % 0.00 in /  0 mm
04:19 57.9 °F /  14.4 °C 57.6 °F /  14.2 °C 30.04 in /  1017.2 hPa Calm   2.0 mph /  3.2 km/h 99 % 0.00 in /  0 mm
04:24 57.9 °F /  14.4 °C 57.6 °F /  14.2 °C 30.04 in /  1017.2 hPa Calm   1.0 mph /  1.6 km/h 99 % 0.00 in /  0 mm
04:29 57.9 °F /  14.4 °C 57.6 °F /  14.2 °C 30.04 in /  1017.2 hPa Calm   1.0 mph /  1.6 km/h 99 % 0.00 in /  0 mm
04:34 57.9 °F /  14.4 °C 57.6 °F /  14.2 °C 30.04 in /  1017.2 hPa Calm   1.0 mph /  1.6 km/h 99 % 0.00 in /  0 mm
04:39 58.3 °F /  14.6 °C 57.9 °F /  14.4 °C 30.04 in /  1017.2 hPa Calm   1.0 mph /  1.6 km/h 99 % 0.00 in /  0 mm
04:44 58.3 °F /  14.6 °C 57.9 °F /  14.4 °C 30.04 in /  1017.2 hPa Calm   1.0 mph /  1.6 km/h 99 % 0.00 in /  0 mm
04:49 58.3 °F /  14.6 °C 57.9 °F /  14.4 °C 30.04 in /  1017.2 hPa Calm   1.0 mph /  1.6 km/h 99 % 0.00 in /  0 mm
04:54 58.3 °F /  14.6 °C 57.9 °F /  14.4 °C 30.04 in /  1017.2 hPa Calm   1.0 mph /  1.6 km/h 99 % 0.00 in /  0 mm
04:59 58.3 °F /  14.6 °C 57.9 °F /  14.4 °C 30.04 in /  1017.2 hPa Calm   1.0 mph /  1.6 km/h 99 % 0.00 in /  0 mm
05:04 58.3 °F /  14.6 °C 57.9 °F /  14.4 °C 30.05 in /  1017.5 hPa Calm   1.0 mph /  1.6 km/h 99 % 0.00 in /  0 mm
05:09 58.3 °F /  14.6 °C 57.9 °F /  14.4 °C 30.05 in /  1017.5 hPa Calm   1.0 mph /  1.6 km/h 99 % 0.00 in /  0 mm
05:14 58.3 °F /  14.6 °C 57.9 °F /  14.4 °C 30.05 in /  1017.5 hPa Calm   1.0 mph /  1.6 km/h 99 % 0.00 in /  0 mm
05:19 58.3 °F /  14.6 °C 57.9 °F /  14.4 °C 30.05 in /  1017.5 hPa Calm     99 % 0.00 in /  0 mm
05:24 58.5 °F /  14.7 °C 58.1 °F /  14.5 °C 30.05 in /  1017.5 hPa Calm   1.0 mph /  1.6 km/h 99 % 0.01 in /  0.25 mm
05:29 58.5 °F /  14.7 °C 58.1 °F /  14.5 °C 30.05 in /  1017.5 hPa Calm   1.0 mph /  1.6 km/h 99 % 0.01 in /  0.25 mm
05:34 58.5 °F /  14.7 °C 58.1 °F /  14.5 °C 30.05 in /  1017.5 hPa Calm   2.0 mph /  3.2 km/h 99 % 0.01 in /  0.25 mm
05:40 58.5 °F /  14.7 °C 58.5 °F /  14.7 °C 30.05 in /  1017.5 hPa Calm   2.0 mph /  3.2 km/h 100 % 0.01 in /  0.25 mm
05:45 58.6 °F /  14.8 °C 58.6 °F /  14.8 °C 30.06 in /  1017.8 hPa NNE 1.0 mph /  1.6 km/h 2.0 mph /  3.2 km/h 100 % 0.01 in /  0.25 mm
05:50 58.6 °F /  14.8 °C 58.6 °F /  14.8 °C 30.06 in /  1017.8 hPa Calm   1.0 mph /  1.6 km/h 100 % 0.01 in /  0.25 mm
05:55 58.6 °F /  14.8 °C 58.6 °F /  14.8 °C 30.06 in /  1017.8 hPa Calm   1.0 mph /  1.6 km/h 100 % 0.02 in /  0.51 mm
06:00 58.6 °F /  14.8 °C 58.6 °F /  14.8 °C 30.06 in /  1017.8 hPa Calm   1.0 mph /  1.6 km/h 100 % 0.02 in /  0.51 mm
06:05 58.6 °F /  14.8 °C 58.6 °F /  14.8 °C 30.06 in /  1017.8 hPa NNE 1.0 mph /  1.6 km/h 1.0 mph /  1.6 km/h 100 % 0.02 in /  0.51 mm
06:10 58.8 °F /  14.9 °C 58.8 °F /  14.9 °C 30.06 in /  1017.8 hPa Calm   1.0 mph /  1.6 km/h 100 % 0.02 in /  0.51 mm
06:15 58.8 °F /  14.9 °C 58.8 °F /  14.9 °C 30.06 in /  1017.8 hPa Calm   2.0 mph /  3.2 km/h 100 % 0.02 in /  0.51 mm
06:20 58.8 °F /  14.9 °C 58.8 °F /  14.9 °C 30.06 in /  1017.8 hPa Calm   2.0 mph /  3.2 km/h 100 % 0.02 in /  0.51 mm
06:25 58.8 °F /  14.9 °C 58.8 °F /  14.9 °C 30.06 in /  1017.8 hPa ENE 1.0 mph /  1.6 km/h 2.0 mph /  3.2 km/h 100 % 0.01 in /  0.25 mm
06:30 58.8 °F /  14.9 °C 58.8 °F /  14.9 °C 30.06 in /  1017.8 hPa Calm   2.0 mph /  3.2 km/h 100 % 0.01 in /  0.25 mm
06:35 58.8 °F /  14.9 °C 58.8 °F /  14.9 °C 30.06 in /  1017.8 hPa Calm   2.0 mph /  3.2 km/h 100 % 0.02 in /  0.51 mm
06:40 58.8 °F /  14.9 °C 58.8 °F /  14.9 °C 30.06 in /  1017.8 hPa Calm   4.0 mph /  6.4 km/h 100 % 0.02 in /  0.51 mm
06:45 59.0 °F /  15 °C 59.0 °F /  15 °C 30.06 in /  1017.8 hPa Calm   4.0 mph /  6.4 km/h 100 % 0.02 in /  0.51 mm
06:50 58.8 °F /  14.9 °C 58.8 °F /  14.9 °C 30.07 in /  1018.2 hPa Calm   3.0 mph /  4.8 km/h 100 % 0.01 in /  0.25 mm
06:55 58.8 °F /  14.9 °C 58.8 °F /  14.9 °C 30.07 in /  1018.2 hPa Calm   3.0 mph /  4.8 km/h 100 % 0.01 in /  0.25 mm
07:00 59.0 °F /  15 °C 59.0 °F /  15 °C 30.07 in /  1018.2 hPa Calm   3.0 mph /  4.8 km/h 100 % 0.01 in /  0.25 mm
07:05 59.0 °F /  15 °C 59.0 °F /  15 °C 30.07 in /  1018.2 hPa Calm   1.0 mph /  1.6 km/h 100 % 0.01 in /  0.25 mm
07:10 59.2 °F /  15.1 °C 59.2 °F /  15.1 °C 30.07 in /  1018.2 hPa NNE 1.0 mph /  1.6 km/h 1.0 mph /  1.6 km/h 100 % 0.01 in /  0.25 mm
07:15 59.2 °F /  15.1 °C 59.2 °F /  15.1 °C 30.08 in /  1018.5 hPa Calm   1.0 mph /  1.6 km/h 100 % 0.01 in /  0.25 mm
07:20 59.2 °F /  15.1 °C 59.2 °F /  15.1 °C 30.08 in /  1018.5 hPa Calm   2.0 mph /  3.2 km/h 100 % 0.01 in /  0.25 mm
07:25 59.2 °F /  15.1 °C 59.2 °F /  15.1 °C 30.08 in /  1018.5 hPa Calm   2.0 mph /  3.2 km/h 100 % 0.00 in /  0 mm
07:30 59.2 °F /  15.1 °C 59.2 °F /  15.1 °C 30.08 in /  1018.5 hPa Calm   2.0 mph /  3.2 km/h 100 % 0.00 in /  0 mm
07:35 59.4 °F /  15.2 °C 59.4 °F /  15.2 °C 30.08 in /  1018.5 hPa Calm   1.0 mph /  1.6 km/h 100 % 0.00 in /  0 mm
07:40 59.4 °F /  15.2 °C 59.4 °F /  15.2 °C 30.08 in /  1018.5 hPa Calm   1.0 mph /  1.6 km/h 100 % 0.00 in /  0 mm
07:45 59.4 °F /  15.2 °C 59.4 °F /  15.2 °C 30.08 in /  1018.5 hPa NE 1.0 mph /  1.6 km/h 1.0 mph /  1.6 km/h 100 % 0.00 in /  0 mm
07:50 59.5 °F /  15.3 °C 59.5 °F /  15.3 °C 30.08 in /  1018.5 hPa Calm   1.0 mph /  1.6 km/h 100 % 0.00 in /  0 mm
07:55 59.5 °F /  15.3 °C 59.5 °F /  15.3 °C 30.08 in /  1018.5 hPa Calm   1.0 mph /  1.6 km/h 100 % 0.00 in /  0 mm
08:00 59.7 °F /  15.4 °C 59.7 °F /  15.4 °C 30.08 in /  1018.5 hPa NE 1.0 mph /  1.6 km/h 1.0 mph /  1.6 km/h 100 % 0.00 in /  0 mm
08:05 59.9 °F /  15.5 °C 59.9 °F /  15.5 °C 30.08 in /  1018.5 hPa Calm   1.0 mph /  1.6 km/h 100 % 0.00 in /  0 mm
08:10 60.1 °F /  15.6 °C 60.1 °F /  15.6 °C 30.08 in /  1018.5 hPa Calm   1.0 mph /  1.6 km/h 100 % 0.00 in /  0 mm
08:15 60.1 °F /  15.6 °C 60.1 °F /  15.6 °C 30.07 in /  1018.2 hPa Calm   2.0 mph /  3.2 km/h 100 % 0.00 in /  0 mm
08:20 60.3 °F /  15.7 °C 60.3 °F /  15.7 °C 30.07 in /  1018.2 hPa Calm   2.0 mph /  3.2 km/h 100 % 0.00 in /  0 mm
08:25 60.4 °F /  15.8 °C 60.4 °F /  15.8 °C 30.07 in /  1018.2 hPa NNW 1.0 mph /  1.6 km/h 2.0 mph /  3.2 km/h 100 % 0.00 in /  0 mm
08:30 60.4 °F /  15.8 °C 60.4 °F /  15.8 °C 30.08 in /  1018.5 hPa Calm   2.0 mph /  3.2 km/h 100 % 0.00 in /  0 mm
08:35 60.6 °F /  15.9 °C 60.6 °F /  15.9 °C 30.08 in /  1018.5 hPa Calm   2.0 mph /  3.2 km/h 100 % 0.00 in /  0 mm
08:40 60.6 °F /  15.9 °C 60.6 °F /  15.9 °C 30.08 in /  1018.5 hPa Calm   2.0 mph /  3.2 km/h 100 % 0.00 in /  0 mm
08:45 61.0 °F /  16.1 °C 61.0 °F /  16.1 °C 30.08 in /  1018.5 hPa Calm   2.0 mph /  3.2 km/h 100 % 0.00 in /  0 mm
08:50 61.2 °F /  16.2 °C 61.2 °F /  16.2 °C 30.08 in /  1018.5 hPa Calm   1.0 mph /  1.6 km/h 100 % 0.00 in /  0 mm
08:55 61.2 °F /  16.2 °C 61.2 °F /  16.2 °C 30.08 in /  1018.5 hPa Calm   2.0 mph /  3.2 km/h 100 % 0.00 in /  0 mm
09:00 61.2 °F /  16.2 °C 61.2 °F /  16.2 °C 30.08 in /  1018.5 hPa Calm   2.0 mph /  3.2 km/h 100 % 0.00 in /  0 mm
09:05 61.3 °F /  16.3 °C 61.3 °F /  16.3 °C 30.08 in /  1018.5 hPa ESE 1.0 mph /  1.6 km/h 2.0 mph /  3.2 km/h 100 % 0.00 in /  0 mm
09:10 61.5 °F /  16.4 °C 61.5 °F /  16.4 °C 30.09 in /  1018.8 hPa Calm   1.0 mph /  1.6 km/h 100 % 0.00 in /  0 mm
09:15 61.7 °F /  16.5 °C 61.7 °F /  16.5 °C 30.09 in /  1018.8 hPa ESE 1.0 mph /  1.6 km/h 1.0 mph /  1.6 km/h 100 % 0.00 in /  0 mm
09:20 61.7 °F /  16.5 °C 61.7 °F /  16.5 °C 30.09 in /  1018.8 hPa Calm   2.0 mph /  3.2 km/h 100 % 0.00 in /  0 mm
09:25 61.9 °F /  16.6 °C 61.9 °F /  16.6 °C 30.09 in /  1018.8 hPa East 1.0 mph /  1.6 km/h 2.0 mph /  3.2 km/h 100 % 0.00 in /  0 mm
09:30 61.9 °F /  16.6 °C 61.9 °F /  16.6 °C 30.08 in /  1018.5 hPa Calm   2.0 mph /  3.2 km/h 100 % 0.00 in /  0 mm
09:35 62.1 °F /  16.7 °C 62.1 °F /  16.7 °C 30.08 in /  1018.5 hPa Calm   2.0 mph /  3.2 km/h 100 % 0.00 in /  0 mm
09:40 62.2 °F /  16.8 °C 62.2 °F /  16.8 °C 30.08 in /  1018.5 hPa Calm   2.0 mph /  3.2 km/h 100 % 0.00 in /  0 mm
09:45 62.4 °F /  16.9 °C 62.4 °F /  16.9 °C 30.08 in /  1018.5 hPa Calm   2.0 mph /  3.2 km/h 100 % 0.00 in /  0 mm
09:50 62.6 °F /  17 °C 62.6 °F /  17 °C 30.08 in /  1018.5 hPa Calm   2.0 mph /  3.2 km/h 100 % 0.00 in /  0 mm
09:55 63.0 °F /  17.2 °C 63.0 °F /  17.2 °C 30.08 in /  1018.5 hPa ENE 1.0 mph /  1.6 km/h 2.0 mph /  3.2 km/h 100 % 0.00 in /  0 mm
10:00 63.1 °F /  17.3 °C 63.1 °F /  17.3 °C 30.08 in /  1018.5 hPa Calm   2.0 mph /  3.2 km/h 100 % 0.00 in /  0 mm
10:05 63.3 °F /  17.4 °C 63.3 °F /  17.4 °C 30.08 in /  1018.5 hPa East 1.0 mph /  1.6 km/h 4.0 mph /  6.4 km/h 100 % 0.00 in /  0 mm
10:10 63.7 °F /  17.6 °C 63.7 °F /  17.6 °C 30.09 in /  1018.8 hPa ESE 2.0 mph /  3.2 km/h 4.0 mph /  6.4 km/h 100 % 0.00 in /  0 mm
10:15 63.9 °F /  17.7 °C 63.9 °F /  17.7 °C 30.09 in /  1018.8 hPa SSE 2.0 mph /  3.2 km/h 4.0 mph /  6.4 km/h 100 % 0.00 in /  0 mm
10:20 64.2 °F /  17.9 °C 64.2 °F /  17.9 °C 30.09 in /  1018.8 hPa ESE 1.0 mph /  1.6 km/h 4.0 mph /  6.4 km/h 100 % 0.00 in /  0 mm
10:25 64.4 °F /  18 °C 64.4 °F /  18 °C 30.08 in /  1018.5 hPa SE 1.0 mph /  1.6 km/h 4.0 mph /  6.4 km/h 100 % 0.00 in /  0 mm
10:30 64.8 °F /  18.2 °C 64.8 °F /  18.2 °C 30.09 in /  1018.8 hPa ENE 2.0 mph /  3.2 km/h 4.0 mph /  6.4 km/h 100 % 0.00 in /  0 mm
10:35 64.8 °F /  18.2 °C 64.8 °F /  18.2 °C 30.08 in /  1018.5 hPa ESE 1.0 mph /  1.6 km/h 4.0 mph /  6.4 km/h 100 % 0.00 in /  0 mm
10:40 64.9 °F /  18.3 °C 64.9 °F /  18.3 °C 30.08 in /  1018.5 hPa SE 1.0 mph /  1.6 km/h 4.0 mph /  6.4 km/h 100 % 0.00 in /  0 mm
10:45 64.9 °F /  18.3 °C 64.9 °F /  18.3 °C 30.08 in /  1018.5 hPa SE 2.0 mph /  3.2 km/h 5.0 mph /  8 km/h 100 % 0.00 in /  0 mm
10:50 65.1 °F /  18.4 °C 65.1 °F /  18.4 °C 30.08 in /  1018.5 hPa SE 2.0 mph /  3.2 km/h 5.0 mph /  8 km/h 100 % 0.00 in /  0 mm
10:55 65.5 °F /  18.6 °C 65.5 °F /  18.6 °C 30.08 in /  1018.5 hPa Calm   5.0 mph /  8 km/h 100 % 0.00 in /  0 mm
11:00 65.5 °F /  18.6 °C 65.5 °F /  18.6 °C 30.08 in /  1018.5 hPa ESE 1.0 mph /  1.6 km/h 3.0 mph /  4.8 km/h 100 % 0.00 in /  0 mm
11:05 65.7 °F /  18.7 °C 65.7 °F /  18.7 °C 30.08 in /  1018.5 hPa SE 1.0 mph /  1.6 km/h 3.0 mph /  4.8 km/h 100 % 0.00 in /  0 mm
11:10 65.8 °F /  18.8 °C 65.8 °F /  18.8 °C 30.08 in /  1018.5 hPa SE 1.0 mph /  1.6 km/h 3.0 mph /  4.8 km/h 100 % 0.00 in /  0 mm
11:15 65.8 °F /  18.8 °C 65.8 °F /  18.8 °C 30.08 in /  1018.5 hPa Calm   3.0 mph /  4.8 km/h 100 % 0.00 in /  0 mm
11:20 66.0 °F /  18.9 °C 66.0 °F /  18.9 °C 30.08 in /  1018.5 hPa SE 1.0 mph /  1.6 km/h 3.0 mph /  4.8 km/h 100 % 0.01 in /  0.25 mm
11:25 66.2 °F /  19 °C 66.2 °F /  19 °C 30.08 in /  1018.5 hPa East 2.0 mph /  3.2 km/h 3.0 mph /  4.8 km/h 100 % 0.01 in /  0.25 mm
11:30 66.2 °F /  19 °C 66.2 °F /  19 °C 30.07 in /  1018.2 hPa Calm   3.0 mph /  4.8 km/h 100 % 0.02 in /  0.51 mm
11:35 66.4 °F /  19.1 °C 66.4 °F /  19.1 °C 30.06 in /  1017.8 hPa Calm   3.0 mph /  4.8 km/h 100 % 0.02 in /  0.51 mm
11:40 66.4 °F /  19.1 °C 66.4 °F /  19.1 °C 30.06 in /  1017.8 hPa ESE 2.0 mph /  3.2 km/h 3.0 mph /  4.8 km/h 100 % 0.02 in /  0.51 mm
11:45 66.6 °F /  19.2 °C 66.6 °F /  19.2 °C 30.06 in /  1017.8 hPa Calm   3.0 mph /  4.8 km/h 100 % 0.02 in /  0.51 mm
11:50 66.7 °F /  19.3 °C 66.7 °F /  19.3 °C 30.06 in /  1017.8 hPa Calm   3.0 mph /  4.8 km/h 100 % 0.02 in /  0.51 mm
11:55 66.9 °F /  19.4 °C 66.9 °F /  19.4 °C 30.06 in /  1017.8 hPa North 1.0 mph /  1.6 km/h 3.0 mph /  4.8 km/h 100 % 0.02 in /  0.51 mm
12:00 67.5 °F /  19.7 °C 67.5 °F /  19.7 °C 30.05 in /  1017.5 hPa Calm   3.0 mph /  4.8 km/h 100 % 0.02 in /  0.51 mm
12:05 68.0 °F /  20 °C 68.0 °F /  20 °C 30.05 in /  1017.5 hPa Calm   2.0 mph /  3.2 km/h 100 % 0.02 in /  0.51 mm
12:10 68.5 °F /  20.3 °C 68.5 °F /  20.3 °C 30.05 in /  1017.5 hPa Calm   2.0 mph /  3.2 km/h 100 % 0.02 in /  0.51 mm
12:15 69.1 °F /  20.6 °C 69.1 °F /  20.6 °C 30.04 in /  1017.2 hPa Calm   2.0 mph /  3.2 km/h 100 % 0.02 in /  0.51 mm
12:20 69.3 °F /  20.7 °C 69.3 °F /  20.7 °C 30.04 in /  1017.2 hPa Calm   2.0 mph /  3.2 km/h 100 % 0.01 in /  0.25 mm
12:25 69.4 °F /  20.8 °C 69.4 °F /  20.8 °C 30.04 in /  1017.2 hPa ESE 2.0 mph /  3.2 km/h 5.0 mph /  8 km/h 100 % 0.01 in /  0.25 mm
12:30 69.6 °F /  20.9 °C 69.6 °F /  20.9 °C 30.04 in /  1017.2 hPa SE 2.0 mph /  3.2 km/h 5.0 mph /  8 km/h 100 % 0.00 in /  0 mm
12:35 70.0 °F /  21.1 °C 70.0 °F /  21.1 °C 30.03 in /  1016.8 hPa East 3.0 mph /  4.8 km/h 5.0 mph /  8 km/h 100 % 0.00 in /  0 mm
12:40 70.0 °F /  21.1 °C 70.0 °F /  21.1 °C 30.03 in /  1016.8 hPa SSE 3.0 mph /  4.8 km/h 8.0 mph /  12.9 km/h 100 % 0.00 in /  0 mm
12:45 70.3 °F /  21.3 °C 70.3 °F /  21.3 °C 30.02 in /  1016.5 hPa SSE 4.0 mph /  6.4 km/h 8.0 mph /  12.9 km/h 100 % 0.00 in /  0 mm
12:50 71.1 °F /  21.7 °C 71.1 °F /  21.7 °C 30.02 in /  1016.5 hPa ESE 4.0 mph /  6.4 km/h 8.0 mph /  12.9 km/h 100 % 0.00 in /  0 mm
12:55 71.1 °F /  21.7 °C 71.1 °F /  21.7 °C 30.01 in /  1016.1 hPa ENE 3.0 mph /  4.8 km/h 7.0 mph /  11.3 km/h 100 % 0.00 in /  0 mm
13:00 71.2 °F /  21.8 °C 71.2 °F /  21.8 °C 30.01 in /  1016.1 hPa SE 4.0 mph /  6.4 km/h 7.0 mph /  11.3 km/h 100 % 0.00 in /  0 mm
13:05 71.2 °F /  21.8 °C 71.2 °F /  21.8 °C 30.01 in /  1016.1 hPa SE 4.0 mph /  6.4 km/h 10.0 mph /  16.1 km/h 100 % 0.00 in /  0 mm
13:10 72.0 °F /  22.2 °C 72.0 °F /  22.2 °C 30.00 in /  1015.8 hPa SE 7.0 mph /  11.3 km/h 10.0 mph /  16.1 km/h 100 % 0.00 in /  0 mm
13:15 72.0 °F /  22.2 °C 72.0 °F /  22.2 °C 30.00 in /  1015.8 hPa SW 5.0 mph /  8 km/h 10.0 mph /  16.1 km/h 100 % 0.00 in /  0 mm
13:20 72.3 °F /  22.4 °C 72.0 °F /  22.2 °C 30.00 in /  1015.8 hPa SE 7.0 mph /  11.3 km/h 10.0 mph /  16.1 km/h 99 % 0.00 in /  0 mm
13:25 72.7 °F /  22.6 °C 72.1 °F /  22.3 °C 30.00 in /  1015.8 hPa SE 6.0 mph /  9.7 km/h 10.0 mph /  16.1 km/h 98 % 0.00 in /  0 mm
13:30 73.0 °F /  22.8 °C 72.1 °F /  22.3 °C 29.99 in /  1015.5 hPa SSW 9.0 mph /  14.5 km/h 11.0 mph /  17.7 km/h 97 % 0.00 in /  0 mm
13:35 73.8 °F /  23.2 °C 71.6 °F /  22 °C 29.99 in /  1015.5 hPa ESE 11.0 mph /  17.7 km/h 12.0 mph /  19.3 km/h 93 % 0.00 in /  0 mm
13:40 74.3 °F /  23.5 °C 71.4 °F /  21.9 °C 29.99 in /  1015.5 hPa SSE 4.0 mph /  6.4 km/h 12.0 mph /  19.3 km/h 91 % 0.00 in /  0 mm
13:45 74.8 °F /  23.8 °C 71.1 °F /  21.7 °C 29.98 in /  1015.1 hPa SE 5.0 mph /  8 km/h 13.0 mph /  20.9 km/h 88 % 0.00 in /  0 mm
13:50 75.4 °F /  24.1 °C 71.2 °F /  21.8 °C 29.98 in /  1015.1 hPa South 6.0 mph /  9.7 km/h 13.0 mph /  20.9 km/h 87 % 0.00 in /  0 mm
13:55 75.4 °F /  24.1 °C 70.9 °F /  21.6 °C 29.98 in /  1015.1 hPa SE 4.0 mph /  6.4 km/h 13.0 mph /  20.9 km/h 86 % 0.00 in /  0 mm
14:00 75.4 °F /  24.1 °C 70.5 °F /  21.4 °C 29.98 in /  1015.1 hPa ESE 10.0 mph /  16.1 km/h 14.0 mph /  22.5 km/h 85 % 0.00 in /  0 mm
14:05 75.4 °F /  24.1 °C 70.5 °F /  21.4 °C 29.98 in /  1015.1 hPa SE 4.0 mph /  6.4 km/h 14.0 mph /  22.5 km/h 85 % 0.00 in /  0 mm
14:10 75.4 °F /  24.1 °C 70.5 °F /  21.4 °C 29.98 in /  1015.1 hPa South 5.0 mph /  8 km/h 14.0 mph /  22.5 km/h 85 % 0.00 in /  0 mm
14:15 75.4 °F /  24.1 °C 70.5 °F /  21.4 °C 29.97 in /  1014.8 hPa SSE 6.0 mph /  9.7 km/h 14.0 mph /  22.5 km/h 85 % 0.00 in /  0 mm
14:20 75.2 °F /  24 °C 70.7 °F /  21.5 °C 29.98 in /  1015.1 hPa SE 8.0 mph /  12.9 km/h 14.0 mph /  22.5 km/h 86 % 0.00 in /  0 mm
14:25 75.2 °F /  24 °C 70.7 °F /  21.5 °C 29.97 in /  1014.8 hPa SSE 2.0 mph /  3.2 km/h 14.0 mph /  22.5 km/h 86 % 0.00 in /  0 mm
14:30 74.8 °F /  23.8 °C 70.7 °F /  21.5 °C 29.98 in /  1015.1 hPa SSE 6.0 mph /  9.7 km/h 12.0 mph /  19.3 km/h 87 % 0.00 in /  0 mm
14:35 74.7 °F /  23.7 °C 70.9 °F /  21.6 °C 29.97 in /  1014.8 hPa SE 4.0 mph /  6.4 km/h 12.0 mph /  19.3 km/h 88 % 0.00 in /  0 mm
14:41 74.7 °F /  23.7 °C 71.2 °F /  21.8 °C 29.97 in /  1014.8 hPa SE 2.0 mph /  3.2 km/h 12.0 mph /  19.3 km/h 89 % 0.00 in /  0 mm
14:46 74.8 °F /  23.8 °C 71.1 °F /  21.7 °C 29.97 in /  1014.8 hPa ESE 4.0 mph /  6.4 km/h 12.0 mph /  19.3 km/h 88 % 0.00 in /  0 mm
14:51 75.0 °F /  23.9 °C 71.6 °F /  22 °C 29.97 in /  1014.8 hPa SE 2.0 mph /  3.2 km/h 9.0 mph /  14.5 km/h 89 % 0.00 in /  0 mm
14:56 75.2 °F /  24 °C 71.1 °F /  21.7 °C 29.97 in /  1014.8 hPa ESE 7.0 mph /  11.3 km/h 9.0 mph /  14.5 km/h 87 % 0.00 in /  0 mm
15:01 75.0 °F /  23.9 °C 70.9 °F /  21.6 °C 29.97 in /  1014.8 hPa South 6.0 mph /  9.7 km/h 13.0 mph /  20.9 km/h 87 % 0.00 in /  0 mm
15:06 74.8 °F /  23.8 °C 70.7 °F /  21.5 °C 29.97 in /  1014.8 hPa South 8.0 mph /  12.9 km/h 13.0 mph /  20.9 km/h 87 % 0.00 in /  0 mm
15:11 74.7 °F /  23.7 °C 70.9 °F /  21.6 °C 29.97 in /  1014.8 hPa SSE 5.0 mph /  8 km/h 13.0 mph /  20.9 km/h 88 % 0.00 in /  0 mm
15:16 74.7 °F /  23.7 °C 71.2 °F /  21.8 °C 29.97 in /  1014.8 hPa ESE 5.0 mph /  8 km/h 12.0 mph /  19.3 km/h 89 % 0.00 in /  0 mm
15:21 74.5 °F /  23.6 °C 71.1 °F /  21.7 °C 29.97 in /  1014.8 hPa ESE 4.0 mph /  6.4 km/h 12.0 mph /  19.3 km/h 89 % 0.00 in /  0 mm
15:26 74.1 °F /  23.4 °C 70.7 °F /  21.5 °C 29.97 in /  1014.8 hPa SSE 3.0 mph /  4.8 km/h 10.0 mph /  16.1 km/h 89 % 0.00 in /  0 mm
15:31 74.1 °F /  23.4 °C 70.7 °F /  21.5 °C 29.97 in /  1014.8 hPa SE 6.0 mph /  9.7 km/h 11.0 mph /  17.7 km/h 89 % 0.00 in /  0 mm
15:36 73.9 °F /  23.3 °C 70.2 °F /  21.2 °C 29.96 in /  1014.4 hPa SSE 7.0 mph /  11.3 km/h 14.0 mph /  22.5 km/h 88 % 0.00 in /  0 mm
15:41 73.9 °F /  23.3 °C 69.8 °F /  21 °C 29.96 in /  1014.4 hPa SE 3.0 mph /  4.8 km/h 14.0 mph /  22.5 km/h 87 % 0.00 in /  0 mm
15:46 74.1 °F /  23.4 °C 70.0 °F /  21.1 °C 29.96 in /  1014.4 hPa SE 4.0 mph /  6.4 km/h 14.0 mph /  22.5 km/h 87 % 0.00 in /  0 mm
15:51 73.9 °F /  23.3 °C 69.8 °F /  21 °C 29.95 in /  1014.1 hPa SSE 8.0 mph /  12.9 km/h 13.0 mph /  20.9 km/h 87 % 0.00 in /  0 mm
15:56 73.9 °F /  23.3 °C 69.8 °F /  21 °C 29.95 in /  1014.1 hPa SE 5.0 mph /  8 km/h 13.0 mph /  20.9 km/h 87 % 0.00 in /  0 mm
16:01 73.9 °F /  23.3 °C 69.8 °F /  21 °C 29.94 in /  1013.8 hPa SSW 6.0 mph /  9.7 km/h 13.0 mph /  20.9 km/h 87 % 0.00 in /  0 mm
16:06 73.8 °F /  23.2 °C 70.0 °F /  21.1 °C 29.94 in /  1013.8 hPa SE 4.0 mph /  6.4 km/h 12.0 mph /  19.3 km/h 88 % 0.00 in /  0 mm
16:11 73.8 °F /  23.2 °C 70.0 °F /  21.1 °C 29.95 in /  1014.1 hPa SE 6.0 mph /  9.7 km/h 12.0 mph /  19.3 km/h 88 % 0.00 in /  0 mm
16:16 73.6 °F /  23.1 °C 70.2 °F /  21.2 °C 29.95 in /  1014.1 hPa SSE 4.0 mph /  6.4 km/h 12.0 mph /  19.3 km/h 89 % 0.00 in /  0 mm
16:21 73.6 °F /  23.1 °C 70.2 °F /  21.2 °C 29.95 in /  1014.1 hPa ESE 8.0 mph /  12.9 km/h 11.0 mph /  17.7 km/h 89 % 0.00 in /  0 mm
16:26 73.4 °F /  23 °C 70.0 °F /  21.1 °C 29.96 in /  1014.4 hPa SE 8.0 mph /  12.9 km/h 11.0 mph /  17.7 km/h 89 % 0.00 in /  0 mm
16:31 73.4 °F /  23 °C 70.0 °F /  21.1 °C 29.96 in /  1014.4 hPa South 7.0 mph /  11.3 km/h 12.0 mph /  19.3 km/h 89 % 0.00 in /  0 mm
16:36 73.4 °F /  23 °C 70.0 °F /  21.1 °C 29.96 in /  1014.4 hPa East 8.0 mph /  12.9 km/h 12.0 mph /  19.3 km/h 89 % 0.00 in /  0 mm
16:41 73.6 °F /  23.1 °C 70.2 °F /  21.2 °C 29.95 in /  1014.1 hPa South 4.0 mph /  6.4 km/h 12.0 mph /  19.3 km/h 89 % 0.00 in /  0 mm
16:46 73.6 °F /  23.1 °C 70.2 °F /  21.2 °C 29.96 in /  1014.4 hPa SE 2.0 mph /  3.2 km/h 11.0 mph /  17.7 km/h 89 % 0.00 in /  0 mm
16:51 73.6 °F /  23.1 °C 70.2 °F /  21.2 °C 29.96 in /  1014.4 hPa SSE 5.0 mph /  8 km/h 10.0 mph /  16.1 km/h 89 % 0.00 in /  0 mm
16:56 73.6 °F /  23.1 °C 70.2 °F /  21.2 °C 29.96 in /  1014.4 hPa SSE 6.0 mph /  9.7 km/h 9.0 mph /  14.5 km/h 89 % 0.00 in /  0 mm
17:01 73.4 °F /  23 °C 70.0 °F /  21.1 °C 29.96 in /  1014.4 hPa East 6.0 mph /  9.7 km/h 11.0 mph /  17.7 km/h 89 % 0.00 in /  0 mm
17:06 73.4 °F /  23 °C 70.0 °F /  21.1 °C 29.97 in /  1014.8 hPa SE 4.0 mph /  6.4 km/h 11.0 mph /  17.7 km/h 89 % 0.00 in /  0 mm
17:11 73.2 °F /  22.9 °C 69.8 °F /  21 °C 29.97 in /  1014.8 hPa South 9.0 mph /  14.5 km/h 13.0 mph /  20.9 km/h 89 % 0.00 in /  0 mm
17:16 73.2 °F /  22.9 °C 69.8 °F /  21 °C 29.97 in /  1014.8 hPa SW 6.0 mph /  9.7 km/h 14.0 mph /  22.5 km/h 89 % 0.00 in /  0 mm
17:21 73.2 °F /  22.9 °C 69.8 °F /  21 °C 29.97 in /  1014.8 hPa SSE 3.0 mph /  4.8 km/h 14.0 mph /  22.5 km/h 89 % 0.00 in /  0 mm
17:26 73.2 °F /  22.9 °C 69.8 °F /  21 °C 29.97 in /  1014.8 hPa SSE 6.0 mph /  9.7 km/h 14.0 mph /  22.5 km/h 89 % 0.00 in /  0 mm
17:31 73.2 °F /  22.9 °C 69.8 °F /  21 °C 29.97 in /  1014.8 hPa SSW 2.0 mph /  3.2 km/h 10.0 mph /  16.1 km/h 89 % 0.00 in /  0 mm
17:36 73.0 °F /  22.8 °C 70.0 °F /  21.1 °C 29.98 in /  1015.1 hPa SSW 5.0 mph /  8 km/h 10.0 mph /  16.1 km/h 90 % 0.00 in /  0 mm
17:41 73.0 °F /  22.8 °C 70.0 °F /  21.1 °C 29.97 in /  1014.8 hPa South 7.0 mph /  11.3 km/h 12.0 mph /  19.3 km/h 90 % 0.00 in /  0 mm
17:46 73.0 °F /  22.8 °C 70.0 °F /  21.1 °C 29.97 in /  1014.8 hPa South 5.0 mph /  8 km/h 12.0 mph /  19.3 km/h 90 % 0.00 in /  0 mm
17:51 73.0 °F /  22.8 °C 70.0 °F /  21.1 °C 29.97 in /  1014.8 hPa SE 7.0 mph /  11.3 km/h 12.0 mph /  19.3 km/h 90 % 0.00 in /  0 mm
17:56 73.0 °F /  22.8 °C 70.0 °F /  21.1 °C 29.97 in /  1014.8 hPa SSE 4.0 mph /  6.4 km/h 12.0 mph /  19.3 km/h 90 % 0.00 in /  0 mm
18:01 72.9 °F /  22.7 °C 69.8 °F /  21 °C 29.97 in /  1014.8 hPa SSE 4.0 mph /  6.4 km/h 12.0 mph /  19.3 km/h 90 % 0.00 in /  0 mm
18:06 72.9 °F /  22.7 °C 70.2 °F /  21.2 °C 29.97 in /  1014.8 hPa SSE 4.0 mph /  6.4 km/h 12.0 mph /  19.3 km/h 91 % 0.00 in /  0 mm
18:11 72.7 °F /  22.6 °C 70.0 °F /  21.1 °C 29.97 in /  1014.8 hPa SE 5.0 mph /  8 km/h 12.0 mph /  19.3 km/h 91 % 0.00 in /  0 mm
18:16 72.7 °F /  22.6 °C 70.0 °F /  21.1 °C 29.97 in /  1014.8 hPa South 7.0 mph /  11.3 km/h 11.0 mph /  17.7 km/h 91 % 0.00 in /  0 mm
18:21 72.5 °F /  22.5 °C 69.8 °F /  21 °C 29.97 in /  1014.8 hPa SE 4.0 mph /  6.4 km/h 11.0 mph /  17.7 km/h 91 % 0.00 in /  0 mm
18:26 72.3 °F /  22.4 °C 69.8 °F /  21 °C 29.96 in /  1014.4 hPa South 3.0 mph /  4.8 km/h 11.0 mph /  17.7 km/h 92 % 0.00 in /  0 mm
18:31 72.1 °F /  22.3 °C 69.6 °F /  20.9 °C 29.97 in /  1014.8 hPa SE 4.0 mph /  6.4 km/h 11.0 mph /  17.7 km/h 92 % 0.00 in /  0 mm
18:36 72.1 °F /  22.3 °C 69.6 °F /  20.9 °C 29.97 in /  1014.8 hPa SE 7.0 mph /  11.3 km/h 9.0 mph /  14.5 km/h 92 % 0.00 in /  0 mm
18:41 72.1 °F /  22.3 °C 70.0 °F /  21.1 °C 29.97 in /  1014.8 hPa SSE 5.0 mph /  8 km/h 9.0 mph /  14.5 km/h 93 % 0.00 in /  0 mm
18:46 72.0 °F /  22.2 °C 69.8 °F /  21 °C 29.97 in /  1014.8 hPa SSE 5.0 mph /  8 km/h 9.0 mph /  14.5 km/h 93 % 0.00 in /  0 mm
18:51 72.0 °F /  22.2 °C 69.8 °F /  21 °C 29.97 in /  1014.8 hPa ESE 5.0 mph /  8 km/h 9.0 mph /  14.5 km/h 93 % 0.00 in /  0 mm
18:56 72.1 °F /  22.3 °C 70.0 °F /  21.1 °C 29.97 in /  1014.8 hPa South 5.0 mph /  8 km/h 10.0 mph /  16.1 km/h 93 % 0.00 in /  0 mm
19:01 72.1 °F /  22.3 °C 70.0 °F /  21.1 °C 29.97 in /  1014.8 hPa SSE 3.0 mph /  4.8 km/h 10.0 mph /  16.1 km/h 93 % 0.00 in /  0 mm
19:06 72.0 °F /  22.2 °C 69.8 °F /  21 °C 29.97 in /  1014.8 hPa SE 4.0 mph /  6.4 km/h 10.0 mph /  16.1 km/h 93 % 0.00 in /  0 mm
19:11 72.0 °F /  22.2 °C 69.8 °F /  21 °C 29.97 in /  1014.8 hPa ESE 4.0 mph /  6.4 km/h 10.0 mph /  16.1 km/h 93 % 0.00 in /  0 mm
19:16 72.0 °F /  22.2 °C 70.2 °F /  21.2 °C 29.97 in /  1014.8 hPa South 5.0 mph /  8 km/h 12.0 mph /  19.3 km/h 94 % 0.00 in /  0 mm
19:21 72.0 °F /  22.2 °C 70.2 °F /  21.2 °C 29.98 in /  1015.1 hPa SSW 5.0 mph /  8 km/h 12.0 mph /  19.3 km/h 94 % 0.00 in /  0 mm
19:26 72.0 °F /  22.2 °C 70.2 °F /  21.2 °C 29.97 in /  1014.8 hPa East 6.0 mph /  9.7 km/h 12.0 mph /  19.3 km/h 94 % 0.00 in /  0 mm
19:31 72.0 °F /  22.2 °C 70.2 °F /  21.2 °C 29.97 in /  1014.8 hPa SE 8.0 mph /  12.9 km/h 11.0 mph /  17.7 km/h 94 % 0.00 in /  0 mm
19:36 72.0 °F /  22.2 °C 70.2 °F /  21.2 °C 29.98 in /  1015.1 hPa SSE 8.0 mph /  12.9 km/h 11.0 mph /  17.7 km/h 94 % 0.00 in /  0 mm
19:41 71.8 °F /  22.1 °C 70.0 °F /  21.1 °C 29.98 in /  1015.1 hPa SSE 4.0 mph /  6.4 km/h 10.0 mph /  16.1 km/h 94 % 0.00 in /  0 mm
19:46 71.8 °F /  22.1 °C 70.0 °F /  21.1 °C 29.98 in /  1015.1 hPa South 7.0 mph /  11.3 km/h 10.0 mph /  16.1 km/h 94 % 0.00 in /  0 mm
19:51 71.8 °F /  22.1 °C 70.0 °F /  21.1 °C 29.98 in /  1015.1 hPa SSW 3.0 mph /  4.8 km/h 10.0 mph /  16.1 km/h 94 % 0.00 in /  0 mm
19:56 71.8 °F /  22.1 °C 70.0 °F /  21.1 °C 29.99 in /  1015.5 hPa South 3.0 mph /  4.8 km/h 10.0 mph /  16.1 km/h 94 % 0.00 in /  0 mm
20:01 71.6 °F /  22 °C 69.8 °F /  21 °C 29.98 in /  1015.1 hPa SSE 3.0 mph /  4.8 km/h 10.0 mph /  16.1 km/h 94 % 0.00 in /  0 mm
20:06 71.6 °F /  22 °C 69.8 °F /  21 °C 29.99 in /  1015.5 hPa SE 5.0 mph /  8 km/h 9.0 mph /  14.5 km/h 94 % 0.00 in /  0 mm
20:11 71.4 °F /  21.9 °C 69.6 °F /  20.9 °C 29.99 in /  1015.5 hPa South 4.0 mph /  6.4 km/h 9.0 mph /  14.5 km/h 94 % 0.00 in /  0 mm
20:16 71.4 °F /  21.9 °C 70.0 °F /  21.1 °C 29.99 in /  1015.5 hPa SSE 4.0 mph /  6.4 km/h 9.0 mph /  14.5 km/h 95 % 0.00 in /  0 mm
20:22 71.4 °F /  21.9 °C 70.0 °F /  21.1 °C 29.99 in /  1015.5 hPa SE 6.0 mph /  9.7 km/h 7.0 mph /  11.3 km/h 95 % 0.00 in /  0 mm
20:27 71.4 °F /  21.9 °C 70.0 °F /  21.1 °C 29.99 in /  1015.5 hPa SSE 3.0 mph /  4.8 km/h 7.0 mph /  11.3 km/h 95 % 0.00 in /  0 mm
20:32 71.4 °F /  21.9 °C 70.0 °F /  21.1 °C 29.99 in /  1015.5 hPa SSE 4.0 mph /  6.4 km/h 7.0 mph /  11.3 km/h 95 % 0.00 in /  0 mm
20:37 71.4 °F /  21.9 °C 70.0 °F /  21.1 °C 30.00 in /  1015.8 hPa South 3.0 mph /  4.8 km/h 7.0 mph /  11.3 km/h 95 % 0.00 in /  0 mm
20:42 71.2 °F /  21.8 °C 69.8 °F /  21 °C 30.00 in /  1015.8 hPa SSW 1.0 mph /  1.6 km/h 7.0 mph /  11.3 km/h 95 % 0.00 in /  0 mm
20:47 71.2 °F /  21.8 °C 69.8 °F /  21 °C 30.00 in /  1015.8 hPa WSW 3.0 mph /  4.8 km/h 7.0 mph /  11.3 km/h 95 % 0.00 in /  0 mm
20:52 70.5 °F /  21.4 °C 67.8 °F /  19.9 °C 30.00 in /  1015.8 hPa NNW 2.0 mph /  3.2 km/h 7.0 mph /  11.3 km/h 91 % 0.00 in /  0 mm
20:57 69.1 °F /  20.6 °C 66.0 °F /  18.9 °C 30.01 in /  1016.1 hPa WSW 2.0 mph /  3.2 km/h 8.0 mph /  12.9 km/h 90 % 0.00 in /  0 mm
21:02 67.3 °F /  19.6 °C 63.9 °F /  17.7 °C 30.01 in /  1016.1 hPa West 2.0 mph /  3.2 km/h 8.0 mph /  12.9 km/h 89 % 0.00 in /  0 mm
21:07 65.7 °F /  18.7 °C 62.2 °F /  16.8 °C 30.01 in /  1016.1 hPa NW 2.0 mph /  3.2 km/h 8.0 mph /  12.9 km/h 89 % 0.00 in /  0 mm
21:12 64.2 °F /  17.9 °C 61.2 °F /  16.2 °C 30.01 in /  1016.1 hPa SW 5.0 mph /  8 km/h 8.0 mph /  12.9 km/h 90 % 0.00 in /  0 mm
21:17 63.3 °F /  17.4 °C 61.0 °F /  16.1 °C 30.02 in /  1016.5 hPa WSW 2.0 mph /  3.2 km/h 8.0 mph /  12.9 km/h 92 % 0.00 in /  0 mm
21:22 62.8 °F /  17.1 °C 60.8 °F /  16 °C 30.02 in /  1016.5 hPa West 1.0 mph /  1.6 km/h 8.0 mph /  12.9 km/h 93 % 0.00 in /  0 mm
21:27 62.4 °F /  16.9 °C 60.4 °F /  15.8 °C 30.02 in /  1016.5 hPa NW 5.0 mph /  8 km/h 8.0 mph /  12.9 km/h 93 % 0.00 in /  0 mm
21:32 61.7 °F /  16.5 °C 59.7 °F /  15.4 °C 30.02 in /  1016.5 hPa Calm   6.0 mph /  9.7 km/h 93 % 0.00 in /  0 mm
21:37 61.2 °F /  16.2 °C 59.2 °F /  15.1 °C 30.02 in /  1016.5 hPa NNW 4.0 mph /  6.4 km/h 6.0 mph /  9.7 km/h 93 % 0.00 in /  0 mm
21:42 60.6 °F /  15.9 °C 58.6 °F /  14.8 °C 30.03 in /  1016.8 hPa Calm   7.0 mph /  11.3 km/h 93 % 0.00 in /  0 mm
21:47 60.3 °F /  15.7 °C 58.5 °F /  14.7 °C 30.03 in /  1016.8 hPa WSW 1.0 mph /  1.6 km/h 7.0 mph /  11.3 km/h 94 % 0.00 in /  0 mm
21:52 60.1 °F /  15.6 °C 58.3 °F /  14.6 °C 30.02 in /  1016.5 hPa NNW 1.0 mph /  1.6 km/h 7.0 mph /  11.3 km/h 94 % 0.00 in /  0 mm
21:57 59.7 °F /  15.4 °C 57.9 °F /  14.4 °C 30.02 in /  1016.5 hPa NNW 1.0 mph /  1.6 km/h 7.0 mph /  11.3 km/h 94 % 0.00 in /  0 mm
22:02 59.4 °F /  15.2 °C 57.6 °F /  14.2 °C 30.02 in /  1016.5 hPa WNW 2.0 mph /  3.2 km/h 6.0 mph /  9.7 km/h 94 % 0.00 in /  0 mm
22:07 58.8 °F /  14.9 °C 57.0 °F /  13.9 °C 30.02 in /  1016.5 hPa Calm   6.0 mph /  9.7 km/h 94 % 0.00 in /  0 mm
22:12 58.6 °F /  14.8 °C 56.8 °F /  13.8 °C 30.02 in /  1016.5 hPa Calm   5.0 mph /  8 km/h 94 % 0.00 in /  0 mm
22:17 58.5 °F /  14.7 °C 57.0 °F /  13.9 °C 30.02 in /  1016.5 hPa Calm   5.0 mph /  8 km/h 95 % 0.00 in /  0 mm
22:22 58.5 °F /  14.7 °C 57.0 °F /  13.9 °C 30.02 in /  1016.5 hPa Calm   4.0 mph /  6.4 km/h 95 % 0.00 in /  0 mm
22:27 58.5 °F /  14.7 °C 57.0 °F /  13.9 °C 30.02 in /  1016.5 hPa WNW 1.0 mph /  1.6 km/h 4.0 mph /  6.4 km/h 95 % 0.00 in /  0 mm
22:32 58.3 °F /  14.6 °C 56.8 °F /  13.8 °C 30.02 in /  1016.5 hPa Calm   4.0 mph /  6.4 km/h 95 % 0.00 in /  0 mm
22:37 57.9 °F /  14.4 °C 56.5 °F /  13.6 °C 30.01 in /  1016.1 hPa NW 2.0 mph /  3.2 km/h 5.0 mph /  8 km/h 95 % 0.00 in /  0 mm
22:42 57.9 °F /  14.4 °C 56.5 °F /  13.6 °C 30.02 in /  1016.5 hPa NW 1.0 mph /  1.6 km/h 5.0 mph /  8 km/h 95 % 0.00 in /  0 mm
22:47 57.7 °F /  14.3 °C 56.3 °F /  13.5 °C 30.02 in /  1016.5 hPa NNW 1.0 mph /  1.6 km/h 5.0 mph /  8 km/h 95 % 0.00 in /  0 mm
22:52 57.4 °F /  14.1 °C 55.9 °F /  13.3 °C 30.03 in /  1016.8 hPa NNW 2.0 mph /  3.2 km/h 6.0 mph /  9.7 km/h 95 % 0.00 in /  0 mm
22:57 57.0 °F /  13.9 °C 55.2 °F /  12.9 °C 30.03 in /  1016.8 hPa North 6.0 mph /  9.7 km/h 7.0 mph /  11.3 km/h 94 % 0.00 in /  0 mm
23:02 56.5 °F /  13.6 °C 55.0 °F /  12.8 °C 30.04 in /  1017.2 hPa WSW 3.0 mph /  4.8 km/h 8.0 mph /  12.9 km/h 95 % 0.00 in /  0 mm
23:07 56.1 °F /  13.4 °C 54.7 °F /  12.6 °C 30.04 in /  1017.2 hPa Calm   8.0 mph /  12.9 km/h 95 % 0.00 in /  0 mm
23:12 55.9 °F /  13.3 °C 54.5 °F /  12.5 °C 30.04 in /  1017.2 hPa NW 7.0 mph /  11.3 km/h 8.0 mph /  12.9 km/h 95 % 0.00 in /  0 mm
23:17 55.6 °F /  13.1 °C 54.1 °F /  12.3 °C 30.04 in /  1017.2 hPa WNW 3.0 mph /  4.8 km/h 9.0 mph /  14.5 km/h 95 % 0.00 in /  0 mm
23:22 55.0 °F /  12.8 °C 53.6 °F /  12 °C 30.05 in /  1017.5 hPa WNW 5.0 mph /  8 km/h 9.0 mph /  14.5 km/h 95 % 0.00 in /  0 mm
23:27 54.5 °F /  12.5 °C 53.1 °F /  11.7 °C 30.04 in /  1017.2 hPa NW 5.0 mph /  8 km/h 9.0 mph /  14.5 km/h 95 % 0.00 in /  0 mm
23:32 54.0 °F /  12.2 °C 52.5 °F /  11.4 °C 30.05 in /  1017.5 hPa NW 6.0 mph /  9.7 km/h 9.0 mph /  14.5 km/h 95 % 0.00 in /  0 mm
23:37 53.8 °F /  12.1 °C 52.7 °F /  11.5 °C 30.04 in /  1017.2 hPa North 4.0 mph /  6.4 km/h 10.0 mph /  16.1 km/h 96 % 0.00 in /  0 mm
23:42 53.2 °F /  11.8 °C 51.8 °F /  11 °C 30.04 in /  1017.2 hPa WNW 1.0 mph /  1.6 km/h 10.0 mph /  16.1 km/h 95 % 0.00 in /  0 mm
23:47 53.1 °F /  11.7 °C 52.0 °F /  11.1 °C 30.04 in /  1017.2 hPa Calm   10.0 mph /  16.1 km/h 96 % 0.00 in /  0 mm
23:52 52.9 °F /  11.6 °C 51.8 °F /  11 °C 30.04 in /  1017.2 hPa Calm   6.0 mph /  9.7 km/h 96 % 0.00 in /  0 mm
23:57 52.9 °F /  11.6 °C 51.8 °F /  11 °C 30.04 in /  1017.2 hPa NW 4.0 mph /  6.4 km/h 6.0 mph /  9.7 km/h 96 % 0.00 in /  0 mm
Spring, Texas: Villages of Bridgestone
Compliments of Weather Underground - 2.75 mb

Script developed by  Jim McMurry - jmcmurry@mwt.net Adapted for the template by  Wim van der Kuil - Leuven-Template.eu

You find our weather info also at:

UK Metoffice

WeatherCloud

Weather Underground

Mid-South Weather Network

AWEKAS

Citizen Weather Observer Program (CWOP)

HAMweather, WeatherForYou, PWS Weather

Equipment we use:

Weather-station
Davis Vantage Vue

Weather-program
Meteohub

Weather-server
Debian 7.9 x86 (Guest)

Provider
DreamHost

Davis Vantage Vue

Meteohub

Debian 7.9 x86 (Guest)

DreamHost